Archival Weather

Chicago O'Hare International

Chicago, Illinois (KORD)

Report from: Thursday, December 29, 2022 11:51 AM CST
Current time: Friday, June 21, 2024 2:05 AM CDT

Current weather – Weather history – Daily summaries
Weather forecast

Temperature12.8°C (55.0°F)
Dew point9.4°C (48.9°F)
Winds 15 kts (7.7 m/s, 17.3 mph) South-Southwest (200°)
Wind gusts 21 kts (10.8 m/s, 24.2 mph)
Peak wind 29 kts (14.9 m/s, 33.4 mph) South-Southwest (200°) at 16:55
Visibility10 mi. (16.1 km)
Clouds Ceiling: Overcast 1,400 ft. (427 m)
Altimeter29.81 in.Hg (1009 mB)
Relative humidity80 %
Density altitude37 ft. (11 m)
Sea-level pressure100.9 kPa (1009 mB, 29.81 in.Hg)
Max temp last 6 hours12.8°C (55.0°F)
Min temp last 6 hours7.2°C (45.0°F)
Remarks Automated weather observing station with precipitation discriminator
Pressure falling more quickly
Flight conditions Marginal Visual Meteorological Conditions
Raw dataKORD 291751Z 20015G21KT 10SM OVC014 13/09 A2981 RMK AO2 PK WND 20029/1655 SLP094 T01280094 10128 20072 58006
An error has occurred. This application may no longer respond until reloaded. Reload 🗙